Terminal Aerodrome Forecast
Issued by NWS Sterling, VA

Current Version | Previous Version | Text Only | Print | Product List | Glossary Off
Versions: 1 2 3 4 5 6 7 8 9 10 11 12 13 14 15 16 17 18 19 20 21 22 23 24 25 26 27

000
FTUS41 KLWX 300848 AAA
TAFDCA
TAF AMD
KDCA 300848Z 3009/0106 06006KT P6SM OVC008
     FM301600 08005KT P6SM BKN015
     FM301800 11006KT P6SM BKN025
     FM302000 13006KT P6SM OVC035
     FM302200 13006KT P6SM OVC030
     FM010000 12007KT 5SM -RA BR OVC020
     FM010300 13008KT 3SM RA BR OVC010=

USA.gov is the U.S. government's official web portal to all federal, state and local government web resources and services.